Terminal Aerodrome Forecast
Issued by NWS

Home | Current Version | Previous Version | Text Only | Print | Product List | Glossary On
Versions: 1 2 3 4 5 6 7 8 9 10 11 12 13 14 15
000
FTUS42 KTBW 270533 RRA
TAFLAL
TAF
KLAL 270533Z 2706/2806 VRB04KT P6SM FEW030 SCT250
     FM271400 13006KT P6SM FEW030 SCT250
     FM271800 14007KT P6SM VCTS SCT040CB SCT150
     FM280200 VRB04KT P6SM FEW050 SCT250
      AMD NOT SKED TIL 271100=

USA.gov is the U.S. government's official web portal to all federal, state and local government web resources and services.